Time;durP1;ratioP1;P1;durP2;ratioP2;P2;SDS_P1;SDS_P2;PMS_P1;PMS_P2;Temp;Humidity;BMP_temperature;BMP_pressure;BME280_temperature;BME280_humidity;BME280_pressure;Samples;Min_cycle;Max_cycle;Signal;HPM_P1;HPM_P2
2023/08/16 00:01:29;;;;;;;8.30;6.67;;;22.20;32.20;;;;;;5024004;28;20471;-65
2023/08/16 00:03:56;;;;;;;12.50;8.17;;;22.20;32.10;;;;;;5026990;28;20479;-65
2023/08/16 00:06:23;;;;;;;11.10;9.30;;;22.20;32.20;;;;;;5029149;28;20978;-65
2023/08/16 00:08:53;;;;;;;10.63;8.63;;;22.20;32.40;;;;;;5024482;28;20568;-65
2023/08/16 00:11:19;;;;;;;14.90;8.60;;;22.20;32.50;;;;;;5025132;28;20459;-66
2023/08/16 00:13:46;;;;;;;11.33;8.20;;;22.10;32.50;;;;;;5019683;28;20948;-65
2023/08/16 00:16:14;;;;;;;11.97;7.90;;;22.10;32.50;;;;;;5023464;28;20463;-64
2023/08/16 00:18:41;;;;;;;13.50;8.33;;;22.10;32.50;;;;;;5027392;28;20481;-65
2023/08/16 00:21:08;;;;;;;14.73;8.70;;;22.10;32.60;;;;;;5026272;28;21042;-65
2023/08/16 00:23:34;;;;;;;10.27;8.20;;;22.10;32.70;;;;;;5024908;28;20486;-65
2023/08/16 00:26:01;;;;;;;11.10;8.33;;;22.00;32.80;;;;;;5026948;28;20470;-65
2023/08/16 00:28:28;;;;;;;12.37;8.30;;;22.00;32.90;;;;;;5024236;28;20487;-65
2023/08/16 00:30:54;;;;;;;11.37;8.40;;;21.90;33.00;;;;;;5020930;28;20495;-65
2023/08/16 00:33:23;;;;;;;12.67;8.50;;;21.90;33.10;;;;;;5024484;28;20459;-65
2023/08/16 00:35:52;;;;;;;9.90;8.20;;;21.90;33.00;;;;;;5025745;28;20949;-65
2023/08/16 00:38:18;;;;;;;10.93;8.70;;;21.90;33.00;;;;;;5025411;28;20482;-65
2023/08/16 00:40:48;;;;;;;12.07;8.70;;;21.90;33.30;;;;;;5022067;28;20470;-65
2023/08/16 00:43:15;;;;;;;11.13;8.80;;;21.80;33.60;;;;;;5025516;28;21014;-65
2023/08/16 00:45:43;;;;;;;10.57;8.20;;;21.80;33.50;;;;;;5026332;28;20459;-65
2023/08/16 00:48:10;;;;;;;15.60;9.87;;;21.80;33.50;;;;;;5026271;28;20486;-65
2023/08/16 00:50:38;;;;;;;13.03;8.80;;;21.80;33.50;;;;;;5028465;28;20474;-65
2023/08/16 00:53:06;;;;;;;9.97;8.63;;;21.80;33.80;;;;;;5022892;28;20454;-65
2023/08/16 00:55:33;;;;;;;10.13;8.60;;;21.70;34.10;;;;;;5025733;28;20466;-65
2023/08/16 00:58:00;;;;;;;12.83;8.70;;;21.70;34.00;;;;;;5025792;28;20569;-65
2023/08/16 01:00:28;;;;;;;12.30;9.40;;;21.70;34.00;;;;;;5024377;28;20466;-65
2023/08/16 01:02:55;;;;;;;12.37;9.07;;;21.70;34.10;;;;;;5023486;28;20466;-65
2023/08/16 01:05:22;;;;;;;13.07;9.67;;;21.60;34.10;;;;;;5026339;28;20842;-65
2023/08/16 01:07:50;;;;;;;11.23;8.57;;;21.60;33.90;;;;;;5024743;28;20487;-65
2023/08/16 01:10:17;;;;;;;11.30;9.07;;;21.50;33.90;;;;;;5027403;28;20955;-65
2023/08/16 01:12:51;;;;;;;12.50;10.00;;;21.50;34.00;;;;;;5025877;28;20473;-65
2023/08/16 01:15:23;;;;;;;11.67;9.30;;;21.50;33.90;;;;;;5024750;28;20509;-65
2023/08/16 01:17:51;;;;;;;12.50;10.10;;;21.50;33.90;;;;;;5024464;28;20857;-65
2023/08/16 01:20:20;;;;;;;13.60;8.80;;;21.50;33.90;;;;;;5026740;28;20467;-67
2023/08/16 01:22:59;;;;;;;10.03;9.03;;;21.50;33.80;;;;;;5026278;28;20890;-65
2023/08/16 01:25:34;;;;;;;13.13;10.00;;;21.50;34.00;;;;;;5023784;28;20471;-64
2023/08/16 01:28:02;;;;;;;13.23;9.90;;;21.40;33.90;;;;;;5025743;28;20488;-65
2023/08/16 01:30:30;;;;;;;13.80;10.17;;;21.40;34.10;;;;;;5026182;28;20463;-65
2023/08/16 01:33:06;;;;;;;11.00;9.57;;;21.40;34.30;;;;;;5027243;28;20470;-65
2023/08/16 01:35:34;;;;;;;14.60;10.47;;;21.30;34.60;;;;;;5023796;28;20983;-65
2023/08/16 01:38:01;;;;;;;12.40;10.07;;;21.30;34.60;;;;;;5022865;28;20533;-65
2023/08/16 01:40:30;;;;;;;12.80;9.23;;;21.30;34.70;;;;;;5023625;28;20463;-65
2023/08/16 01:42:58;;;;;;;9.53;8.20;;;21.30;34.80;;;;;;5026467;28;20553;-65
2023/08/16 01:45:27;;;;;;;16.03;10.30;;;21.20;34.70;;;;;;5023648;28;20471;-66
2023/08/16 01:47:55;;;;;;;12.93;9.33;;;21.30;35.20;;;;;;5026545;28;20501;-65
2023/08/16 01:50:22;;;;;;;11.50;8.50;;;21.20;35.10;;;;;;5028760;28;20467;-65
2023/08/16 01:52:49;;;;;;;10.87;8.47;;;21.20;35.10;;;;;;5022672;28;20474;-65
2023/08/16 01:55:15;;;;;;;11.23;8.50;;;21.20;35.20;;;;;;5023608;28;20467;-65
2023/08/16 01:57:42;;;;;;;11.97;9.30;;;21.20;35.30;;;;;;5031280;28;21864;-65
2023/08/16 02:00:10;;;;;;;12.23;8.90;;;21.20;35.60;;;;;;5030656;28;20510;-65
2023/08/16 02:02:38;;;;;;;10.93;9.30;;;21.10;35.50;;;;;;5028876;28;20805;-65
2023/08/16 02:05:06;;;;;;;11.73;10.20;;;21.10;35.50;;;;;;5026031;28;20521;-65
2023/08/16 02:07:33;;;;;;;12.33;9.33;;;21.10;35.60;;;;;;5030994;28;20478;-65
2023/08/16 02:10:00;;;;;;;12.73;9.40;;;21.10;35.40;;;;;;5030111;28;20454;-65
2023/08/16 02:12:26;;;;;;;8.90;7.17;;;21.00;35.30;;;;;;5027873;28;20458;-65
2023/08/16 02:14:53;;;;;;;11.50;8.60;;;21.00;35.20;;;;;;5029991;28;20451;-65
2023/08/16 02:17:20;;;;;;;12.50;8.47;;;20.90;35.20;;;;;;5030956;28;20451;-65
2023/08/16 02:19:48;;;;;;;10.40;9.00;;;20.90;35.30;;;;;;5029039;28;20463;-65
2023/08/16 02:22:14;;;;;;;12.10;9.43;;;20.90;35.50;;;;;;5026900;28;20459;-65
2023/08/16 02:24:41;;;;;;;11.10;9.07;;;20.90;35.40;;;;;;5028552;28;20490;-65
2023/08/16 02:27:08;;;;;;;15.73;9.03;;;20.80;35.40;;;;;;5030145;28;20459;-65
2023/08/16 02:29:34;;;;;;;9.97;8.30;;;20.80;35.40;;;;;;5028542;28;20967;-64
2023/08/16 02:32:01;;;;;;;10.50;8.63;;;20.80;35.50;;;;;;5028609;28;20474;-64
2023/08/16 02:34:28;;;;;;;10.80;8.27;;;20.80;35.70;;;;;;5030396;28;20463;-65
2023/08/16 02:36:56;;;;;;;11.93;9.30;;;20.80;36.00;;;;;;5030379;28;20463;-64
2023/08/16 02:39:23;;;;;;;12.63;9.20;;;20.70;36.20;;;;;;5027728;28;20566;-64
2023/08/16 02:41:49;;;;;;;13.07;9.30;;;20.70;36.40;;;;;;5025561;28;20474;-65
2023/08/16 02:44:16;;;;;;;14.60;8.90;;;20.60;36.70;;;;;;5029092;28;20503;-65
2023/08/16 02:46:43;;;;;;;11.00;8.97;;;20.50;37.20;;;;;;5030345;28;21044;-65
2023/08/16 02:49:09;;;;;;;14.67;9.73;;;20.50;37.30;;;;;;5029498;28;20986;-67
2023/08/16 02:51:36;;;;;;;10.20;8.20;;;20.50;37.60;;;;;;5027066;28;20459;-67
2023/08/16 02:54:06;;;;;;;10.20;8.40;;;20.50;38.00;;;;;;5029678;28;20466;-66
2023/08/16 02:56:32;;;;;;;14.43;10.00;;;20.40;37.80;;;;;;5029085;28;20470;-64
2023/08/16 02:58:59;;;;;;;12.53;8.63;;;20.40;37.70;;;;;;5027829;28;20478;-66
2023/08/16 03:01:26;;;;;;;10.23;8.67;;;20.30;37.90;;;;;;5027915;28;20486;-65
2023/08/16 03:03:53;;;;;;;13.10;9.50;;;20.40;38.10;;;;;;5027490;28;20480;-65
2023/08/16 03:06:19;;;;;;;13.50;10.13;;;20.40;38.00;;;;;;5026449;28;20486;-65
2023/08/16 03:08:46;;;;;;;13.20;9.90;;;20.30;38.00;;;;;;5029056;28;20978;-65
2023/08/16 03:11:14;;;;;;;12.80;9.50;;;20.30;38.10;;;;;;5026407;28;20493;-65
2023/08/16 03:13:41;;;;;;;14.77;9.43;;;20.30;38.30;;;;;;5029684;28;20466;-65
2023/08/16 03:16:08;;;;;;;10.27;8.30;;;20.30;38.30;;;;;;5023729;28;20467;-65
2023/08/16 03:18:34;;;;;;;11.60;9.03;;;20.20;38.20;;;;;;5023492;28;20486;-65
2023/08/16 03:21:01;;;;;;;10.47;9.37;;;20.30;38.30;;;;;;5022742;28;21414;-64
2023/08/16 03:23:28;;;;;;;13.07;8.83;;;20.30;38.20;;;;;;5024569;28;20478;-64
2023/08/16 03:25:54;;;;;;;10.13;7.83;;;20.20;38.30;;;;;;5024754;28;20484;-64
2023/08/16 03:28:22;;;;;;;12.70;8.43;;;20.30;38.40;;;;;;5025847;28;20494;-65
2023/08/16 03:30:49;;;;;;;13.57;8.43;;;20.20;38.20;;;;;;5027247;28;20484;-64
2023/08/16 03:33:16;;;;;;;10.57;8.50;;;20.20;38.10;;;;;;5024104;28;20804;-65
2023/08/16 03:35:42;;;;;;;10.20;7.67;;;20.20;38.10;;;;;;5024161;28;20493;-65
2023/08/16 03:38:09;;;;;;;11.23;7.70;;;20.20;37.90;;;;;;5025556;28;21090;-65
2023/08/16 03:40:36;;;;;;;10.57;8.70;;;20.20;37.50;;;;;;5024609;28;20470;-66
2023/08/16 03:43:03;;;;;;;14.10;8.17;;;20.10;37.50;;;;;;5026832;28;20467;-66
2023/08/16 03:45:31;;;;;;;12.93;9.20;;;20.10;37.40;;;;;;5022618;28;20479;-65
2023/08/16 03:47:58;;;;;;;10.77;8.53;;;20.10;37.60;;;;;;5026409;28;20485;-65
2023/08/16 03:50:25;;;;;;;11.17;8.63;;;20.10;37.50;;;;;;5022527;28;20471;-65
2023/08/16 03:52:51;;;;;;;11.30;8.67;;;20.10;37.50;;;;;;5021074;28;20538;-65
2023/08/16 03:55:18;;;;;;;9.43;8.37;;;20.10;37.40;;;;;;5024494;28;20498;-65
2023/08/16 03:57:45;;;;;;;9.70;7.90;;;20.10;37.50;;;;;;5029409;28;20483;-65
2023/08/16 04:00:15;;;;;;;10.60;7.67;;;20.10;37.40;;;;;;5028561;28;20459;-65
2023/08/16 04:02:43;;;;;;;12.40;8.30;;;20.10;37.40;;;;;;5025316;28;20502;-64
2023/08/16 04:05:11;;;;;;;13.97;8.47;;;20.10;37.30;;;;;;5027444;28;20489;-65
2023/08/16 04:07:38;;;;;;;10.40;8.40;;;20.10;37.40;;;;;;5028373;28;20525;-69
2023/08/16 04:10:05;;;;;;;10.80;7.90;;;20.00;37.50;;;;;;5028713;28;20473;-69
2023/08/16 04:12:32;;;;;;;11.53;8.00;;;20.00;37.70;;;;;;5027950;28;20845;-67
2023/08/16 04:14:59;;;;;;;11.20;7.93;;;20.00;37.70;;;;;;5027142;28;20466;-65
2023/08/16 04:17:25;;;;;;;9.10;7.60;;;20.00;37.60;;;;;;5027351;28;20864;-64
2023/08/16 04:19:53;;;;;;;10.83;9.00;;;20.00;37.50;;;;;;5028736;28;20454;-64
2023/08/16 04:22:20;;;;;;;10.37;7.83;;;20.00;37.40;;;;;;5026706;28;20463;-65
2023/08/16 04:24:48;;;;;;;11.90;8.30;;;20.00;37.00;;;;;;5023509;28;20995;-64
2023/08/16 04:29:49;;;;;;;10.87;8.23;;;20.00;37.10;;;;;;5022498;28;20467;-69
2023/08/16 04:32:16;;;;;;;10.87;8.73;;;20.00;36.80;;;;;;5025270;28;20471;-69
2023/08/16 04:34:42;;;;;;;9.77;7.83;;;20.10;36.70;;;;;;5027828;28;20848;-69
2023/08/16 04:37:10;;;;;;;10.63;7.40;;;20.10;36.60;;;;;;5025995;28;20597;-69
2023/08/16 04:39:37;;;;;;;13.50;6.83;;;20.10;36.50;;;;;;5026311;28;20462;-69
2023/08/16 04:42:05;;;;;;;15.90;8.10;;;20.10;36.40;;;;;;5026717;28;20463;-69
2023/08/16 04:44:31;;;;;;;12.63;8.30;;;20.10;36.20;;;;;;5025856;28;20459;-69
2023/08/16 04:46:58;;;;;;;12.47;8.37;;;20.10;36.20;;;;;;5027100;28;20459;-69
2023/08/16 04:49:26;;;;;;;16.77;9.57;;;20.20;36.00;;;;;;5027107;28;20486;-69
2023/08/16 04:51:53;;;;;;;19.13;9.07;;;20.20;36.10;;;;;;5027353;28;20743;-69
2023/08/16 04:54:21;;;;;;;15.70;9.67;;;20.20;36.30;;;;;;5025428;28;20459;-69
2023/08/16 04:56:48;;;;;;;14.97;8.90;;;20.30;36.40;;;;;;5027117;28;20458;-69
2023/08/16 04:59:15;;;;;;;13.20;9.93;;;20.40;36.30;;;;;;5026686;28;20486;-69
2023/08/16 05:01:41;;;;;;;15.40;9.13;;;20.50;36.20;;;;;;5027353;28;20478;-69
2023/08/16 05:04:09;;;;;;;12.67;8.97;;;20.60;36.10;;;;;;5024566;28;20474;-69
2023/08/16 05:06:36;;;;;;;12.60;9.23;;;20.70;36.30;;;;;;5022741;28;20978;-69
2023/08/16 05:09:04;;;;;;;13.80;8.80;;;20.70;36.10;;;;;;5024416;28;20486;-69
2023/08/16 05:11:32;;;;;;;17.03;10.23;;;20.80;35.90;;;;;;5020918;28;20477;-69
2023/08/16 05:13:59;;;;;;;10.77;9.00;;;20.90;36.00;;;;;;5023081;28;20455;-69
2023/08/16 05:16:26;;;;;;;12.67;8.83;;;21.10;36.00;;;;;;5023671;28;20489;-68
2023/08/16 05:18:53;;;;;;;12.67;8.03;;;21.30;35.50;;;;;;5027364;28;20486;-68
2023/08/16 05:21:20;;;;;;;11.23;8.10;;;21.70;34.80;;;;;;5025580;28;20536;-69
2023/08/16 05:23:47;;;;;;;16.13;9.70;;;22.20;33.70;;;;;;5026766;28;20470;-69
2023/08/16 05:26:13;;;;;;;10.60;9.13;;;22.70;32.20;;;;;;5025048;28;20486;-69
2023/08/16 05:28:42;;;;;;;12.37;11.00;;;23.50;30.20;;;;;;5024835;28;20479;-70
2023/08/16 05:31:09;;;;;;;11.57;9.90;;;24.30;28.30;;;;;;5025490;28;20499;-69
2023/08/16 05:33:35;;;;;;;10.00;7.60;;;25.10;25.10;;;;;;5032343;28;21216;-69
2023/08/16 05:36:02;;;;;;;9.10;7.00;;;26.00;23.10;;;;;;5030702;28;20469;-69
2023/08/16 05:38:29;;;;;;;10.73;6.73;;;26.70;18.90;;;;;;5031432;28;20490;-70
2023/08/16 05:40:55;;;;;;;9.47;6.70;;;27.60;17.10;;;;;;5029339;28;20488;-70
2023/08/16 05:43:23;;;;;;;11.20;6.90;;;28.40;14.80;;;;;;5027763;28;20459;-69
2023/08/16 05:45:51;;;;;;;12.63;6.63;;;29.10;13.00;;;;;;5028312;28;20518;-69
2023/08/16 05:48:18;;;;;;;10.00;7.37;;;29.90;10.60;;;;;;5029855;28;20481;-69
2023/08/16 05:50:44;;;;;;;12.80;7.67;;;30.40;8.90;;;;;;5028981;28;20467;-69
2023/08/16 05:53:11;;;;;;;12.63;8.20;;;31.00;7.20;;;;;;5026428;28;20469;-70
2023/08/16 05:55:38;;;;;;;11.60;7.60;;;31.90;5.30;;;;;;5030036;28;20455;-70
2023/08/16 05:58:05;;;;;;;8.67;7.83;;;32.60;3.60;;;;;;5029813;28;20482;-70
2023/08/16 06:00:32;;;;;;;9.50;8.40;;;33.30;2.50;;;;;;5030527;28;20467;-70
2023/08/16 06:03:00;;;;;;;12.23;8.53;;;34.10;1.00;;;;;;5028221;28;20463;-70
2023/08/16 06:05:27;;;;;;;15.50;8.20;;;34.80;1.00;;;;;;5028502;28;20486;-70
2023/08/16 06:07:54;;;;;;;10.80;8.50;;;35.40;1.00;;;;;;5027941;28;20885;-70
2023/08/16 06:10:21;;;;;;;8.93;7.77;;;36.20;1.00;;;;;;5027825;28;20522;-70
2023/08/16 06:12:48;;;;;;;9.73;7.70;;;36.90;1.00;;;;;;5029981;28;20482;-70
2023/08/16 06:15:15;;;;;;;9.60;8.60;;;37.60;1.00;;;;;;5029663;28;20458;-71
2023/08/16 06:17:43;;;;;;;9.30;7.53;;;38.30;1.00;;;;;;5029898;28;20472;-71
2023/08/16 06:20:11;;;;;;;12.47;8.90;;;38.70;1.00;;;;;;5030001;28;20487;-71
2023/08/16 06:22:38;;;;;;;11.70;7.93;;;39.30;1.00;;;;;;5027891;28;20460;-71
2023/08/16 06:25:07;;;;;;;11.03;7.73;;;39.80;1.00;;;;;;5028163;28;20466;-71
2023/08/16 06:27:34;;;;;;;8.23;7.00;;;40.50;1.00;;;;;;5027826;28;21362;-71
2023/08/16 06:30:00;;;;;;;9.40;7.50;;;41.40;1.00;;;;;;5029375;28;20483;-71
2023/08/16 06:32:27;;;;;;;9.53;8.13;;;42.20;1.00;;;;;;5029663;28;20475;-71
2023/08/16 06:34:54;;;;;;;8.93;6.83;;;42.90;1.00;;;;;;5029096;28;20462;-71
2023/08/16 06:37:23;;;;;;;9.00;6.80;;;43.40;1.00;;;;;;5029491;28;20459;-70
2023/08/16 06:39:49;;;;;;;8.43;6.80;;;43.80;1.00;;;;;;5026350;28;20545;-70
2023/08/16 06:42:16;;;;;;;8.17;7.37;;;44.60;1.00;;;;;;5028072;28;20455;-70
2023/08/16 06:44:43;;;;;;;8.43;6.60;;;45.20;1.00;;;;;;5030625;28;20474;-71
2023/08/16 06:47:10;;;;;;;8.50;7.00;;;45.80;1.00;;;;;;5029168;28;20485;-71
2023/08/16 06:49:37;;;;;;;8.30;7.50;;;46.40;1.00;;;;;;5029155;28;20455;-71
2023/08/16 06:52:04;;;;;;;7.47;6.63;;;46.90;1.00;;;;;;5029159;28;20454;-70
2023/08/16 06:54:32;;;;;;;7.47;6.67;;;46.90;1.00;;;;;;5027439;28;20458;-71
2023/08/16 06:56:59;;;;;;;10.20;7.77;;;47.40;1.00;;;;;;5030378;28;20478;-71
2023/08/16 06:59:26;;;;;;;9.80;7.50;;;47.90;1.00;;;;;;5028997;28;20482;-71
2023/08/16 07:01:53;;;;;;;7.10;6.40;;;48.40;1.00;;;;;;5028643;28;20470;-71
2023/08/16 07:04:20;;;;;;;7.30;6.60;;;48.90;1.00;;;;;;5027017;28;20493;-71
2023/08/16 07:06:46;;;;;;;8.00;7.20;;;49.40;1.00;;;;;;5029110;28;20487;-71
2023/08/16 07:09:13;;;;;;;7.33;6.60;;;50.00;1.00;;;;;;5030071;28;20479;-71
2023/08/16 07:11:41;;;;;;;8.10;7.37;;;50.50;1.00;;;;;;5029009;28;20458;-71
2023/08/16 07:14:08;;;;;;;8.57;6.97;;;50.90;1.00;;;;;;5025441;28;20467;-70
2023/08/16 07:16:36;;;;;;;9.00;8.20;;;51.20;1.00;;;;;;5029045;28;20550;-70
2023/08/16 07:19:04;;;;;;;9.63;8.03;;;51.40;1.00;;;;;;5028983;28;21037;-70
2023/08/16 07:21:30;;;;;;;10.87;7.67;;;51.90;1.00;;;;;;5029128;28;20451;-70
2023/08/16 07:23:58;;;;;;;9.60;7.07;;;52.30;1.00;;;;;;5027656;28;20458;-70
2023/08/16 07:26:25;;;;;;;8.23;7.00;;;52.70;1.00;;;;;;5029050;28;20581;-70
2023/08/16 07:28:53;;;;;;;7.50;6.80;;;53.10;1.00;;;;;;5025859;28;20478;-71
2023/08/16 07:31:20;;;;;;;7.37;6.37;;;53.20;1.00;;;;;;5026934;28;20470;-71
2023/08/16 07:33:46;;;;;;;7.37;6.67;;;53.50;1.00;;;;;;5027277;28;20462;-71
2023/08/16 07:36:13;;;;;;;9.40;7.00;;;53.70;1.00;;;;;;5028877;28;20869;-71
2023/08/16 07:38:40;;;;;;;8.00;7.20;;;53.90;1.00;;;;;;5027208;28;20482;-71
2023/08/16 07:41:07;;;;;;;7.53;6.33;;;54.10;1.00;;;;;;5029255;28;20466;-71
2023/08/16 07:43:34;;;;;;;7.27;6.23;;;54.30;1.00;;;;;;5027769;28;20469;-71
2023/08/16 07:46:02;;;;;;;7.37;6.40;;;54.50;1.00;;;;;;5029110;28;20478;-70
2023/08/16 07:48:29;;;;;;;7.67;6.47;;;55.00;1.00;;;;;;5026517;28;20478;-70
2023/08/16 07:50:56;;;;;;;8.43;6.90;;;55.00;1.00;;;;;;5029473;28;20461;-71
2023/08/16 07:53:23;;;;;;;6.73;5.93;;;55.00;1.00;;;;;;5027510;28;20466;-70
2023/08/16 07:55:50;;;;;;;7.67;6.83;;;54.80;1.00;;;;;;5029171;28;20454;-70
2023/08/16 07:58:16;;;;;;;7.70;6.87;;;54.70;1.00;;;;;;5026062;28;20478;-71
2023/08/16 08:00:45;;;;;;;7.90;6.47;;;55.00;1.00;;;;;;5028977;28;20474;-71
2023/08/16 08:03:13;;;;;;;8.90;6.20;;;55.40;1.00;;;;;;5028072;28;20903;-71
2023/08/16 08:05:40;;;;;;;7.00;5.70;;;55.90;1.00;;;;;;5028947;28;20200;-71
2023/08/16 08:08:08;;;;;;;8.67;6.23;;;55.80;1.00;;;;;;5027582;28;20487;-71
2023/08/16 08:10:35;;;;;;;7.73;7.03;;;56.10;1.00;;;;;;5028496;28;20474;-71
2023/08/16 08:13:02;;;;;;;8.80;6.20;;;56.50;1.00;;;;;;5028479;28;20478;-71
2023/08/16 08:15:29;;;;;;;6.63;5.50;;;56.30;1.00;;;;;;5029152;28;20208;-71
2023/08/16 08:17:56;;;;;;;6.57;5.20;;;56.20;1.00;;;;;;5027995;28;20220;-71
2023/08/16 08:20:24;;;;;;;9.00;6.23;;;56.10;1.00;;;;;;5026912;28;20200;-71
2023/08/16 08:22:51;;;;;;;6.82;4.68;;;56.30;1.00;;;;;;5023709;28;20211;-71
2023/08/16 08:25:17;;;;;;;7.00;5.38;;;56.40;1.00;;;;;;5028686;28;20207;-70
2023/08/16 08:27:44;;;;;;;8.32;5.03;;;56.80;1.00;;;;;;5027958;28;20306;-71
2023/08/16 08:30:12;;;;;;;7.45;5.00;;;57.10;1.00;;;;;;5027432;28;20203;-71
2023/08/16 08:32:38;;;;;;;5.47;4.75;;;57.10;1.00;;;;;;5027759;28;20663;-71
2023/08/16 08:35:06;;;;;;;5.95;4.53;;;57.30;1.00;;;;;;5027935;28;20658;-71
2023/08/16 08:37:34;;;;;;;6.63;4.93;;;57.50;1.00;;;;;;5027756;28;20698;-71
2023/08/16 08:40:01;;;;;;;6.97;5.60;;;57.30;1.00;;;;;;5028138;28;20208;-71
2023/08/16 08:42:28;;;;;;;7.05;5.50;;;57.50;1.00;;;;;;5028298;28;20214;-70
2023/08/16 08:44:56;;;;;;;6.45;5.25;;;57.50;1.00;;;;;;5024695;28;20250;-70
2023/08/16 08:47:24;;;;;;;6.30;5.22;;;57.00;1.00;;;;;;5027686;28;20308;-70
2023/08/16 08:49:51;;;;;;;5.97;4.78;;;56.70;1.00;;;;;;5028204;28;20550;-71
2023/08/16 08:52:19;;;;;;;9.27;5.15;;;56.70;1.00;;;;;;5025751;28;20211;-71
2023/08/16 08:54:47;;;;;;;6.07;4.07;;;57.00;1.00;;;;;;5027070;28;20203;-71
2023/08/16 08:57:16;;;;;;;6.87;4.87;;;56.60;1.00;;;;;;5025973;28;20250;-70
2023/08/16 08:59:49;;;;;;;6.20;4.57;;;56.70;1.00;;;;;;5027993;28;20204;-71
2023/08/16 09:02:17;;;;;;;5.23;4.70;;;56.70;1.00;;;;;;5025479;28;20762;-71
2023/08/16 09:04:46;;;;;;;6.80;4.87;;;55.90;1.00;;;;;;5027917;28;20212;-71
2023/08/16 09:07:13;;;;;;;7.90;4.50;;;55.80;1.00;;;;;;5031160;28;20222;-70
2023/08/16 09:09:43;;;;;;;5.83;4.57;;;55.80;1.00;;;;;;5031893;28;20223;-71
2023/08/16 09:12:12;;;;;;;5.30;3.50;;;56.10;1.00;;;;;;5031839;28;20676;-71
2023/08/16 09:14:39;;;;;;;5.63;4.23;;;56.30;1.00;;;;;;5030536;28;20204;-71
2023/08/16 09:17:05;;;;;;;8.00;4.80;;;56.50;1.00;;;;;;5030199;28;20204;-71
2023/08/16 09:19:32;;;;;;;6.13;3.90;;;56.00;1.00;;;;;;5028825;28;20462;-71
2023/08/16 09:21:59;;;;;;;8.47;3.60;;;55.70;1.00;;;;;;5030848;28;20477;-70
2023/08/16 09:24:26;;;;;;;5.17;4.27;;;55.30;1.00;;;;;;5030951;28;20469;-71
2023/08/16 09:26:53;;;;;;;7.80;4.43;;;55.20;1.00;;;;;;5032203;28;20490;-71
2023/08/16 09:29:21;;;;;;;5.47;3.80;;;54.90;1.00;;;;;;5029903;28;20482;-71
2023/08/16 09:31:47;;;;;;;4.73;3.23;;;54.70;1.00;;;;;;5031456;28;21018;-71
2023/08/16 09:34:14;;;;;;;5.70;3.70;;;54.70;1.00;;;;;;5030864;28;20966;-72
2023/08/16 09:36:43;;;;;;;4.93;3.90;;;54.40;1.00;;;;;;5031011;28;20458;-71
2023/08/16 09:39:10;;;;;;;5.67;3.60;;;54.50;1.00;;;;;;5031110;28;20509;-72
2023/08/16 09:41:38;;;;;;;4.83;2.90;;;54.60;1.00;;;;;;5031032;28;20976;-70
2023/08/16 09:44:05;;;;;;;5.37;2.93;;;54.60;1.00;;;;;;5030923;28;20496;-70
2023/08/16 09:46:34;;;;;;;4.30;3.00;;;53.30;1.00;;;;;;5030367;28;20576;-69
2023/08/16 09:49:07;;;;;;;4.80;3.30;;;52.90;1.00;;;;;;5031830;28;20474;-70
2023/08/16 09:51:34;;;;;;;5.80;2.93;;;53.80;1.00;;;;;;5028396;28;20454;-71
2023/08/16 09:54:02;;;;;;;4.80;2.60;;;54.20;1.00;;;;;;5031013;28;20520;-71
2023/08/16 09:56:33;;;;;;;4.80;2.93;;;53.90;1.00;;;;;;5029250;28;20516;-71
2023/08/16 09:59:00;;;;;;;4.53;2.70;;;54.10;1.00;;;;;;5027651;28;20485;-71
2023/08/16 10:01:27;;;;;;;4.00;2.90;;;54.00;1.00;;;;;;5028845;28;20502;-70
2023/08/16 10:03:56;;;;;;;8.10;2.50;;;54.00;1.00;;;;;;5031150;28;20493;-71
2023/08/16 10:06:23;;;;;;;5.37;2.70;;;54.60;1.00;;;;;;5030741;28;20954;-71
2023/08/16 10:08:50;;;;;;;4.60;2.83;;;55.20;1.00;;;;;;5030347;28;20466;-71
2023/08/16 10:11:17;;;;;;;5.07;2.40;;;55.50;1.00;;;;;;5030956;28;20516;-70
2023/08/16 10:13:44;;;;;;;4.50;2.17;;;55.50;1.00;;;;;;5026260;28;21000;-71
2023/08/16 10:16:14;;;;;;;3.80;2.37;;;55.70;1.00;;;;;;5028796;28;20827;-71
2023/08/16 10:18:43;;;;;;;5.47;3.10;;;56.10;1.00;;;;;;5030227;28;20478;-71
2023/08/16 10:21:15;;;;;;;4.00;2.67;;;56.20;1.00;;;;;;5031193;28;20462;-70
2023/08/16 10:23:43;;;;;;;5.50;2.80;;;55.50;1.00;;;;;;5031785;28;20454;-70
2023/08/16 10:26:14;;;;;;;4.27;2.43;;;55.30;1.00;;;;;;5030616;28;20489;-70
2023/08/16 10:28:43;;;;;;;5.07;2.40;;;55.00;1.00;;;;;;5029296;28;20569;-70
2023/08/16 10:31:11;;;;;;;5.30;2.50;;;55.20;1.00;;;;;;5041336;23;20985;-66
2023/08/16 10:33:44;;;;;;;4.53;2.70;;;53.80;1.00;;;;;;5027872;28;21019;-65
2023/08/16 10:36:13;;;;;;;3.70;2.43;;;51.80;1.00;;;;;;5027038;28;20486;-64
2023/08/16 10:38:41;;;;;;;5.03;2.80;;;49.90;1.00;;;;;;5029256;28;20470;-65
2023/08/16 10:41:12;;;;;;;4.33;3.03;;;48.50;1.00;;;;;;5029453;28;20516;-65
2023/08/16 10:43:39;;;;;;;4.27;2.97;;;46.70;1.00;;;;;;5030087;28;21769;-64
2023/08/16 10:46:05;;;;;;;4.50;2.80;;;44.90;1.00;;;;;;5029307;28;20459;-65
2023/08/16 10:48:36;;;;;;;4.43;2.30;;;43.40;1.00;;;;;;5029526;28;20949;-64
2023/08/16 10:51:04;;;;;;;4.43;3.20;;;42.00;1.00;;;;;;5025959;28;20490;-64
2023/08/16 10:53:34;;;;;;;4.60;3.00;;;40.90;1.00;;;;;;5027885;28;20463;-65
2023/08/16 10:56:05;;;;;;;5.77;3.53;;;39.90;1.00;;;;;;5029928;28;20860;-64
2023/08/16 10:58:33;;;;;;;4.70;2.90;;;39.00;1.00;;;;;;5029382;28;20901;-64
2023/08/16 11:01:04;;;;;;;5.07;3.90;;;38.30;1.00;;;;;;5028770;28;20467;-63
2023/08/16 11:03:31;;;;;;;5.23;3.47;;;37.60;1.00;;;;;;5026170;28;21068;-63
2023/08/16 11:05:59;;;;;;;4.60;3.20;;;37.00;1.00;;;;;;5027189;28;20466;-63
2023/08/16 11:08:29;;;;;;;5.10;3.77;;;36.30;1.00;;;;;;5026461;28;20491;-63
2023/08/16 11:10:58;;;;;;;6.10;3.80;;;35.80;1.00;;;;;;5029379;28;20811;-63
2023/08/16 11:13:25;;;;;;;5.47;3.93;;;35.30;1.00;;;;;;5028516;28;20455;-64
2023/08/16 11:15:51;;;;;;;5.17;3.30;;;34.90;1.00;;;;;;5027923;28;20454;-63
2023/08/16 11:18:27;;;;;;;4.30;3.20;;;34.70;1.00;;;;;;5028949;28;20474;-63
2023/08/16 11:20:54;;;;;;;5.23;3.60;;;34.50;1.00;;;;;;5024071;28;20466;-63
2023/08/16 11:23:21;;;;;;;7.40;4.10;;;34.30;1.00;;;;;;5029230;28;20564;-63
2023/08/16 11:25:48;;;;;;;5.50;4.17;;;34.10;1.00;;;;;;5028572;28;20948;-63
2023/08/16 11:28:18;;;;;;;5.23;3.77;;;33.90;1.00;;;;;;5027183;28;20478;-63
2023/08/16 11:30:45;;;;;;;5.80;4.00;;;33.80;1.00;;;;;;5025703;28;20509;-65
2023/08/16 11:33:15;;;;;;;6.40;4.00;;;33.80;1.00;;;;;;5026453;28;20521;-64
2023/08/16 11:35:42;;;;;;;5.43;3.70;;;33.90;1.00;;;;;;5026847;28;20462;-64
2023/08/16 11:38:13;;;;;;;5.90;3.80;;;33.90;1.00;;;;;;5028507;28;20490;-64
2023/08/16 11:40:40;;;;;;;5.43;3.53;;;33.80;1.00;;;;;;5026486;28;20994;-64
2023/08/16 11:43:07;;;;;;;4.87;3.43;;;33.60;1.00;;;;;;5026936;28;20485;-64
2023/08/16 11:45:35;;;;;;;5.63;3.97;;;33.50;1.00;;;;;;5027944;28;20512;-64
2023/08/16 11:48:03;;;;;;;7.73;4.20;;;33.30;1.00;;;;;;5029288;28;20489;-64
2023/08/16 11:50:33;;;;;;;6.07;3.03;;;33.20;1.00;;;;;;5025083;28;20463;-64
2023/08/16 11:53:01;;;;;;;5.60;3.20;;;33.10;1.00;;;;;;5027877;28;20940;-64
2023/08/16 11:55:29;;;;;;;10.00;3.40;;;32.90;1.00;;;;;;5026932;28;20459;-64
2023/08/16 11:58:03;;;;;;;5.00;3.10;;;32.70;1.00;;;;;;5028380;28;20470;-63
2023/08/16 12:00:30;;;;;;;5.00;3.00;;;32.50;1.00;;;;;;5025546;28;20537;-64
2023/08/16 12:02:58;;;;;;;5.20;3.23;;;32.40;1.00;;;;;;5027621;28;20455;-63
2023/08/16 12:05:26;;;;;;;4.90;3.20;;;32.30;1.00;;;;;;5026485;28;20462;-64
2023/08/16 12:07:53;;;;;;;5.70;3.23;;;32.20;1.00;;;;;;5025609;28;20532;-64
2023/08/16 12:10:24;;;;;;;5.80;4.27;;;32.10;1.00;;;;;;5028373;28;20459;-64
2023/08/16 12:12:52;;;;;;;5.50;3.40;;;32.10;1.00;;;;;;5026829;28;20532;-64
2023/08/16 12:15:20;;;;;;;4.33;2.80;;;32.10;1.00;;;;;;5031321;28;20467;-64
2023/08/16 12:17:48;;;;;;;6.73;2.93;;;32.00;1.00;;;;;;5027820;28;20551;-63
2023/08/16 12:20:16;;;;;;;4.57;2.57;;;31.90;1.00;;;;;;5026315;28;20451;-64
2023/08/16 12:22:44;;;;;;;7.37;3.10;;;31.90;1.00;;;;;;5025092;28;20462;-63
2023/08/16 12:25:10;;;;;;;5.60;3.43;;;31.80;1.00;;;;;;5028339;28;20459;-63
2023/08/16 12:27:37;;;;;;;5.43;3.23;;;31.70;1.00;;;;;;5024440;28;20536;-64
2023/08/16 12:30:06;;;;;;;5.77;3.40;;;31.60;1.00;;;;;;5026049;28;20531;-64
2023/08/16 12:32:33;;;;;;;4.77;3.07;;;31.60;1.00;;;;;;5025122;28;20470;-65
2023/08/16 12:34:59;;;;;;;5.53;2.50;;;31.60;1.00;;;;;;5026862;28;20482;-64
2023/08/16 12:37:27;;;;;;;5.97;2.63;;;31.60;1.00;;;;;;5025371;28;20475;-63
2023/08/16 12:39:54;;;;;;;7.93;3.10;;;31.60;1.00;;;;;;5027419;28;20459;-64
2023/08/16 12:42:21;;;;;;;4.90;3.10;;;31.50;1.00;;;;;;5027181;28;20464;-63
2023/08/16 12:44:47;;;;;;;4.50;3.00;;;31.50;1.00;;;;;;5026297;28;20459;-63
2023/08/16 12:47:14;;;;;;;4.70;3.30;;;31.50;1.00;;;;;;5025454;28;20991;-64
2023/08/16 12:49:41;;;;;;;4.77;3.30;;;31.40;1.00;;;;;;5027654;28;20458;-64
2023/08/16 12:52:08;;;;;;;6.10;2.80;;;31.40;1.00;;;;;;5028336;28;20462;-63